Time;durP1;ratioP1;P1;durP2;ratioP2;P2;SDS_P1;SDS_P2;PMS_P1;PMS_P2;Temp;Humidity;BMP_temperature;BMP_pressure;BME280_temperature;BME280_humidity;BME280_pressure;Samples;Min_cycle;Max_cycle;Signal;HPM_P1;HPM_P2
2024/02/10 00:00:15;;;;;;;1999.90;999.90;;;;;;;4.76;78.10;95641.41;5134199;27;20070;-65
2024/02/10 00:02:42;;;;;;;1999.90;999.90;;;;;;;4.73;79.38;95639.75;5134147;27;20416;-67
2024/02/10 00:05:11;;;;;;;1999.90;999.90;;;;;;;4.75;78.73;95634.50;5134217;27;20107;-63
2024/02/10 00:07:38;;;;;;;1999.90;999.90;;;;;;;4.74;76.66;95638.88;5134062;27;20149;-64
2024/02/10 00:10:06;;;;;;;1999.90;999.90;;;;;;;4.48;77.78;95634.44;5133966;27;20043;-63
2024/02/10 00:12:33;;;;;;;1999.90;999.90;;;;;;;4.30;78.38;95628.84;5134112;27;20096;-63
2024/02/10 00:15:05;;;;;;;1999.90;999.90;;;;;;;4.31;78.32;95635.75;5134158;27;20075;-67
2024/02/10 00:17:32;;;;;;;1999.90;999.90;;;;;;;4.29;77.46;95637.53;5133998;27;20071;-66
2024/02/10 00:19:59;;;;;;;1999.90;999.90;;;;;;;4.09;77.65;95638.91;5134027;27;20484;-65
2024/02/10 00:22:28;;;;;;;1999.90;999.90;;;;;;;4.03;78.03;95636.47;5134235;27;20048;-64
2024/02/10 00:24:57;;;;;;;1999.90;999.90;;;;;;;3.96;78.11;95637.53;5133897;27;20535;-66
2024/02/10 00:27:24;;;;;;;1999.90;999.90;;;;;;;3.89;78.41;95629.94;5133894;27;20051;-66
2024/02/10 00:29:51;;;;;;;1999.90;999.90;;;;;;;3.90;78.34;95631.66;5134598;27;20051;-63
2024/02/10 00:32:18;;;;;;;1999.90;999.90;;;;;;;3.88;80.00;95623.06;5138090;27;20047;-64
2024/02/10 00:34:45;;;;;;;1999.90;999.90;;;;;;;3.85;80.22;95619.72;5138036;27;20043;-65
2024/02/10 00:37:16;;;;;;;1999.90;999.90;;;;;;;3.82;80.10;95625.81;5138099;27;20047;-67
2024/02/10 00:39:45;;;;;;;1999.90;999.90;;;;;;;3.74;80.28;95618.25;5137895;27;20047;-63
2024/02/10 00:42:13;;;;;;;1999.90;999.90;;;;;;;3.75;81.43;95612.19;5138015;27;20050;-63
2024/02/10 00:44:40;;;;;;;1999.90;999.90;;;;;;;3.74;81.33;95618.25;5137881;27;20092;-65
2024/02/10 00:47:12;;;;;;;1999.90;999.90;;;;;;;3.75;81.01;95608.75;5137977;27;20047;-65
2024/02/10 00:49:40;;;;;;;1999.90;999.90;;;;;;;3.78;82.39;95611.25;5137728;27;20046;-64
2024/02/10 00:52:08;;;;;;;1999.90;999.90;;;;;;;3.84;81.73;95612.84;5137836;27;20074;-64
2024/02/10 00:54:37;;;;;;;1999.90;999.90;;;;;;;3.85;80.92;95622.31;5137723;27;20070;-65
2024/02/10 00:57:10;;;;;;;1999.90;999.90;;;;;;;3.90;81.07;95628.19;5137721;27;20096;-65
2024/02/10 00:59:37;;;;;;;1999.90;999.90;;;;;;;3.87;80.51;95626.56;5137500;27;20051;-64
2024/02/10 01:02:05;;;;;;;1999.90;999.90;;;;;;;3.85;80.72;95617.97;5137634;27;20161;-65
2024/02/10 01:04:32;;;;;;;1999.90;999.90;;;;;;;3.85;80.88;95620.56;5137490;27;20096;-63
2024/02/10 01:06:59;;;;;;;1999.90;999.90;;;;;;;3.86;80.58;95618.81;5137400;27;20039;-63
2024/02/10 01:09:26;;;;;;;1999.90;999.90;;;;;;;3.88;81.39;95628.25;5137328;27;20085;-66
2024/02/10 01:11:53;;;;;;;1999.90;999.90;;;;;;;3.87;81.33;95628.28;5137218;27;20047;-65
2024/02/10 01:14:22;;;;;;;1999.90;999.90;;;;;;;3.85;80.83;95632.66;5137263;27;20086;-67
2024/02/10 01:16:49;;;;;;;1999.90;999.90;;;;;;;3.80;81.11;95632.78;5137544;27;20043;-64
2024/02/10 01:19:17;;;;;;;1999.90;999.90;;;;;;;3.76;81.77;95629.41;5137214;27;20051;-67
2024/02/10 01:21:44;;;;;;;1999.90;999.90;;;;;;;3.72;82.82;95626.94;5137142;27;20051;-64
2024/02/10 01:24:12;;;;;;;1999.90;999.90;;;;;;;3.76;83.39;95629.41;5137161;27;20130;-64
2024/02/10 01:26:40;;;;;;;1999.90;999.90;;;;;;;3.75;83.58;95625.13;5137074;27;20403;-64
2024/02/10 01:29:09;;;;;;;1999.90;999.90;;;;;;;3.71;83.97;95628.69;5137063;27;20101;-64
2024/02/10 01:31:37;;;;;;;1999.90;999.90;;;;;;;3.68;83.27;95626.19;5136973;27;20046;-67
2024/02/10 01:34:04;;;;;;;1999.90;999.90;;;;;;;3.66;82.32;95628.81;5137034;27;20083;-64
2024/02/10 01:36:33;;;;;;;1999.90;999.90;;;;;;;3.67;82.37;95630.50;5137012;27;20084;-64
2024/02/10 01:39:00;;;;;;;1999.90;999.90;;;;;;;3.53;82.63;95630.00;5136756;27;20043;-65
2024/02/10 01:41:28;;;;;;;1999.90;999.90;;;;;;;3.53;83.44;95627.41;5135846;27;20039;-66
2024/02/10 01:43:55;;;;;;;1999.90;999.90;;;;;;;3.53;84.93;95622.22;5136806;27;20395;-63
2024/02/10 01:46:23;;;;;;;1999.90;999.90;;;;;;;3.39;84.84;95620.84;5136611;27;20488;-65
2024/02/10 01:48:51;;;;;;;1999.90;999.90;;;;;;;3.40;85.36;95626.84;5136532;27;20051;-65
2024/02/10 01:51:19;;;;;;;1999.90;999.90;;;;;;;3.46;84.60;95636.22;5136545;27;20591;-64
2024/02/10 01:53:47;;;;;;;1999.90;999.90;;;;;;;3.46;84.74;95633.63;5136541;27;20126;-67
2024/02/10 01:56:16;;;;;;;1999.90;999.90;;;;;;;3.49;84.72;95628.38;5136432;27;20090;-65
2024/02/10 01:58:46;;;;;;;1999.90;999.90;;;;;;;3.58;84.53;95630.72;5136482;27;20051;-68
2024/02/10 02:01:15;;;;;;;1999.90;999.90;;;;;;;3.56;84.40;95623.88;5136452;27;20140;-66
2024/02/10 02:03:43;;;;;;;1999.90;999.90;;;;;;;3.47;85.29;95623.25;5136426;27;20408;-67
2024/02/10 02:06:50;;;;;;;1999.90;999.90;;;;;;;3.45;85.41;95630.19;5136310;27;20046;-63
2024/02/10 02:09:18;;;;;;;1999.90;999.90;;;;;;;3.46;85.60;95628.44;5136264;27;20541;-66
2024/02/10 02:11:47;;;;;;;1999.90;999.90;;;;;;;3.46;85.23;95626.69;5136623;27;20500;-67
2024/02/10 02:14:16;;;;;;;1999.90;999.90;;;;;;;3.43;83.62;95624.19;5136468;27;20066;-66
2024/02/10 02:16:46;;;;;;;1999.90;999.90;;;;;;;3.33;83.55;95620.13;5136096;27;20051;-65
2024/02/10 02:19:14;;;;;;;1999.90;999.90;;;;;;;3.22;84.69;95625.56;5136047;27;20053;-65
2024/02/10 02:21:42;;;;;;;1999.90;999.90;;;;;;;3.14;85.69;95629.19;5136152;27;20087;-65
2024/02/10 02:24:10;;;;;;;1999.90;999.90;;;;;;;3.22;86.48;95628.97;5135822;27;20138;-67
2024/02/10 02:26:37;;;;;;;1999.90;999.90;;;;;;;3.24;85.54;95628.94;5135880;27;20480;-66
2024/02/10 02:29:07;;;;;;;1999.90;999.90;;;;;;;3.18;84.97;95627.34;5135771;27;20125;-66
2024/02/10 02:31:35;;;;;;;1999.90;999.90;;;;;;;3.15;84.78;95624.84;5135773;27;20117;-67
2024/02/10 02:34:04;;;;;;;1999.90;999.90;;;;;;;3.15;85.01;95624.84;5135955;27;20049;-64
2024/02/10 02:36:31;;;;;;;1999.90;999.90;;;;;;;3.21;85.02;95616.94;5135731;27;20039;-63
2024/02/10 02:39:00;;;;;;;1999.90;999.90;;;;;;;3.22;83.69;95613.47;5135672;27;20055;-67
2024/02/10 02:41:30;;;;;;;1999.90;999.90;;;;;;;3.20;84.16;95615.25;5135570;27;20043;-67
2024/02/10 02:43:57;;;;;;;1999.90;999.90;;;;;;;3.13;84.14;95611.13;5135499;27;20135;-66
2024/02/10 02:46:24;;;;;;;1999.90;999.90;;;;;;;2.96;84.46;95612.34;5135689;27;20050;-64
2024/02/10 02:48:53;;;;;;;1999.90;999.90;;;;;;;2.96;84.80;95603.75;5135364;27;20050;-63
2024/02/10 02:51:21;;;;;;;1999.90;999.90;;;;;;;3.00;85.29;95598.47;5135443;27;20476;-66
2024/02/10 02:53:51;;;;;;;1999.90;999.90;;;;;;;3.02;85.84;95599.31;5135371;27;20047;-67
2024/02/10 02:56:19;;;;;;;1999.90;999.90;;;;;;;2.98;86.59;95602.81;5135247;27;20047;-67
2024/02/10 02:58:54;;;;;;;1999.90;999.90;;;;;;;3.03;87.35;95602.72;5135128;27;20050;-64
2024/02/10 03:01:21;;;;;;;1999.90;999.90;;;;;;;3.06;86.95;95618.16;5135372;27;20054;-65
2024/02/10 03:03:50;;;;;;;1999.90;999.90;;;;;;;3.09;85.43;95622.41;5135246;27;20039;-67
2024/02/10 03:06:18;;;;;;;1999.90;999.90;;;;;;;3.10;85.94;95622.34;5135093;27;20043;-66
2024/02/10 03:08:46;;;;;;;1999.90;999.90;;;;;;;2.99;86.16;95612.28;5135109;27;20096;-62
2024/02/10 03:11:17;;;;;;;1999.90;999.90;;;;;;;2.97;88.87;95620.94;5134983;27;20047;-67
2024/02/10 03:13:48;;;;;;;;;;;;;;;3.03;89.32;95625.97;5135324;27;20138;-63
2024/02/10 03:16:17;;;;;;;1999.90;999.90;;;;;;;3.02;89.34;95624.28;5135047;27;20429;-66
2024/02/10 03:18:46;;;;;;;1999.90;999.90;;;;;;;2.99;89.98;95630.38;5134756;27;20496;-67
2024/02/10 03:21:13;;;;;;;1999.90;999.90;;;;;;;3.00;88.94;95631.22;5134776;27;20039;-66
2024/02/10 03:23:41;;;;;;;1999.90;999.90;;;;;;;3.05;87.38;95631.09;5134826;27;20054;-64
2024/02/10 03:26:08;;;;;;;1999.90;999.90;;;;;;;3.01;87.65;95635.50;5134790;27;20066;-67
2024/02/10 03:28:35;;;;;;;1999.90;999.90;;;;;;;3.06;87.86;95645.72;5134814;27;20471;-66
2024/02/10 03:31:04;;;;;;;1999.90;999.90;;;;;;;3.13;88.08;95637.78;5134674;27;20039;-65
2024/02/10 03:33:32;;;;;;;1999.90;999.90;;;;;;;3.12;88.02;95638.69;5134685;27;20043;-64
2024/02/10 03:35:59;;;;;;;1999.90;999.90;;;;;;;3.15;87.75;95628.28;5134788;27;20047;-63
2024/02/10 03:38:27;;;;;;;1999.90;999.90;;;;;;;3.20;89.42;95629.91;5134878;27;20051;-66
2024/02/10 03:40:54;;;;;;;1999.90;999.90;;;;;;;3.20;89.43;95633.34;5134502;27;20051;-66
2024/02/10 03:43:26;;;;;;;1999.90;999.90;;;;;;;3.18;88.93;95632.53;5134402;27;20116;-64
2024/02/10 03:45:53;;;;;;;1999.90;999.90;;;;;;;3.12;88.22;95635.25;5134833;27;20043;-64
2024/02/10 03:48:21;;;;;;;1999.90;999.90;;;;;;;3.12;87.09;95635.25;5134281;27;20043;-65
2024/02/10 03:50:48;;;;;;;1999.90;999.90;;;;;;;3.14;87.26;95649.00;5134342;27;20055;-64
2024/02/10 03:53:17;;;;;;;1999.90;999.90;;;;;;;3.13;87.34;95645.56;5134194;27;20051;-65
2024/02/10 03:55:45;;;;;;;1999.90;999.90;;;;;;;3.01;88.31;95632.94;5133870;27;20085;-67
2024/02/10 03:58:16;;;;;;;1999.90;999.90;;;;;;;3.06;89.54;95638.81;5134154;27;20047;-64
2024/02/10 04:00:43;;;;;;;1999.90;999.90;;;;;;;3.12;89.37;95630.94;5134118;27;20055;-65
2024/02/10 04:03:11;;;;;;;1999.90;999.90;;;;;;;3.20;88.73;95645.41;5134164;27;20051;-66
2024/02/10 04:05:39;;;;;;;1999.90;999.90;;;;;;;3.18;87.20;95636.84;5133673;27;20088;-65
2024/02/10 04:08:08;;;;;;;1999.90;999.90;;;;;;;3.07;86.41;95635.34;5134482;27;20461;-67
2024/02/10 04:10:35;;;;;;;1999.90;999.90;;;;;;;3.03;86.42;95637.16;5134170;27;20039;-64
2024/02/10 04:13:09;;;;;;;1999.90;999.90;;;;;;;3.05;86.44;95631.97;5134023;28;20043;-65
2024/02/10 04:15:36;;;;;;;1999.90;999.90;;;;;;;3.05;86.94;95621.63;5134045;27;20043;-66
2024/02/10 04:18:05;;;;;;;1999.90;999.90;;;;;;;2.98;87.29;95622.66;5133991;27;20051;-66
2024/02/10 04:20:32;;;;;;;1999.90;999.90;;;;;;;2.86;87.67;95619.44;5133900;27;20047;-67
2024/02/10 04:23:05;;;;;;;1999.90;999.90;;;;;;;2.86;89.44;95624.59;5133966;27;20408;-64
2024/02/10 04:25:32;;;;;;;1999.90;999.90;;;;;;;2.93;89.82;95622.75;5134011;27;20043;-65
2024/02/10 04:28:02;;;;;;;1999.90;999.90;;;;;;;2.96;89.52;95627.00;5134043;27;20149;-66
2024/02/10 04:30:31;;;;;;;1999.90;999.90;;;;;;;2.99;90.59;95642.44;5134164;27;20095;-67
2024/02/10 04:32:58;;;;;;;1999.90;999.90;;;;;;;3.03;90.88;95647.50;5134247;27;20051;-65
2024/02/10 04:35:26;;;;;;;1999.90;999.90;;;;;;;3.09;90.89;95649.09;5133884;27;20043;-64
2024/02/10 04:37:53;;;;;;;1999.90;999.90;;;;;;;3.19;90.67;95660.06;5133871;27;20082;-65
2024/02/10 04:40:24;;;;;;;1999.90;999.90;;;;;;;3.27;89.72;95665.94;5133691;27;20512;-62
2024/02/10 04:42:51;;;;;;;;;;;;;;;3.33;89.27;95667.50;5134229;27;20488;-67
2024/02/10 04:45:26;;;;;;;1999.90;999.90;;;;;;;3.35;88.71;95663.16;5133958;27;20287;-64
2024/02/10 04:47:54;;;;;;;1999.90;999.90;;;;;;;3.30;88.55;95657.25;5133722;27;20047;-67
2024/02/10 04:50:21;;;;;;;1999.90;999.90;;;;;;;3.32;89.00;95649.44;5133837;27;20055;-67
2024/02/10 04:52:48;;;;;;;1999.90;999.90;;;;;;;3.32;90.09;95623.59;5133769;27;20547;-67
2024/02/10 04:55:18;;;;;;;1999.90;999.90;;;;;;;3.40;90.57;95621.66;5133500;27;20426;-64
2024/02/10 04:57:47;;;;;;;1999.90;999.90;;;;;;;3.43;89.77;95634.53;5133540;27;20464;-64
2024/02/10 05:00:16;;;;;;;1999.90;999.90;;;;;;;3.37;89.22;95634.69;5133583;27;20047;-65
2024/02/10 05:02:44;;;;;;;1999.90;999.90;;;;;;;3.29;88.73;95630.53;5133665;27;20090;-62
2024/02/10 05:05:12;;;;;;;1999.90;999.90;;;;;;;3.20;88.47;95635.94;5133592;27;20054;-65
2024/02/10 05:07:43;;;;;;;1999.90;999.90;;;;;;;3.23;88.21;95629.84;5133652;27;20103;-65
2024/02/10 05:10:14;;;;;;;1999.90;999.90;;;;;;;3.11;88.84;95625.81;5133481;27;20047;-66
2024/02/10 05:12:44;;;;;;;1999.90;999.90;;;;;;;3.10;89.14;95616.38;5133687;27;20158;-64
2024/02/10 05:15:14;;;;;;;1999.90;999.90;;;;;;;3.07;88.25;95622.44;5133799;27;20047;-63
2024/02/10 05:17:42;;;;;;;1999.90;999.90;;;;;;;3.03;88.74;95615.63;5135509;27;20050;-65
2024/02/10 05:20:18;;;;;;;1999.90;999.90;;;;;;;2.99;90.43;95607.13;5136996;27;20488;-67
2024/02/10 05:22:47;;;;;;;1999.90;999.90;;;;;;;3.05;90.95;95613.88;5137170;27;20235;-64
2024/02/10 05:25:15;;;;;;;1999.90;999.90;;;;;;;3.14;92.07;95617.97;5137143;27;20515;-67
2024/02/10 05:27:45;;;;;;;1999.90;999.90;;;;;;;3.18;91.72;95618.75;5137044;27;20050;-63
2024/02/10 05:30:20;;;;;;;1999.90;999.90;;;;;;;3.21;91.32;95616.94;5137119;27;20453;-66
2024/02/10 05:32:49;;;;;;;1999.90;999.90;;;;;;;3.24;88.91;95616.88;5136933;27;20054;-64
2024/02/10 05:35:18;;;;;;;1999.90;999.90;;;;;;;3.21;88.61;95614.38;5136865;27;20092;-65
2024/02/10 05:37:47;;;;;;;1999.90;999.90;;;;;;;3.24;88.80;95603.09;5136878;27;20043;-68
2024/02/10 05:40:14;;;;;;;1999.90;999.90;;;;;;;3.26;88.44;95612.53;5136705;27;20047;-63
2024/02/10 05:42:44;;;;;;;1999.90;999.90;;;;;;;3.33;87.31;95618.41;5137097;27;20431;-66
2024/02/10 05:45:17;;;;;;;1999.90;999.90;;;;;;;3.36;87.30;95636.41;5136803;27;20127;-66
2024/02/10 05:47:44;;;;;;;1999.90;999.90;;;;;;;3.38;87.62;95651.91;5136762;27;20043;-63
2024/02/10 05:50:15;;;;;;;1999.90;999.90;;;;;;;3.41;87.98;95664.75;5136674;27;20042;-64
2024/02/10 05:52:44;;;;;;;1999.90;999.90;;;;;;;3.47;89.18;95667.19;5136525;27;20393;-66
2024/02/10 05:55:13;;;;;;;1999.90;999.90;;;;;;;3.45;89.80;95666.38;5136600;27;20126;-67
2024/02/10 05:57:41;;;;;;;1999.90;999.90;;;;;;;3.57;90.08;95666.97;5136354;27;20130;-66
2024/02/10 06:00:11;;;;;;;1999.90;999.90;;;;;;;3.69;89.62;95665.81;5136443;27;20047;-66
2024/02/10 06:02:43;;;;;;;1999.90;999.90;;;;;;;3.74;89.83;95666.56;5136423;27;20553;-67
2024/02/10 06:05:12;;;;;;;1999.90;999.90;;;;;;;3.82;90.08;95663.78;5136365;27;20046;-68
2024/02/10 06:07:41;;;;;;;1999.90;999.90;;;;;;;3.86;89.60;95660.22;5136325;27;20079;-68
2024/02/10 06:10:11;;;;;;;1999.90;999.90;;;;;;;3.90;89.44;95660.13;5136359;27;20053;-67
2024/02/10 06:12:43;;;;;;;1999.90;999.90;;;;;;;3.86;90.52;95661.09;5136568;27;20051;-68
2024/02/10 06:15:11;;;;;;;1999.90;999.90;;;;;;;3.84;91.33;95660.25;5136125;27;20043;-64
2024/02/10 06:17:39;;;;;;;1999.90;999.90;;;;;;;3.88;92.58;95663.59;5136165;27;20496;-67
2024/02/10 06:20:12;;;;;;;1999.90;999.90;;;;;;;3.91;92.91;95666.13;5136032;27;20536;-64
2024/02/10 06:22:40;;;;;;;1999.90;999.90;;;;;;;4.06;93.20;95667.47;5136120;27;20471;-68
2024/02/10 06:25:10;;;;;;;1999.90;999.90;;;;;;;4.17;93.11;95670.63;5135877;27;20047;-64
2024/02/10 06:27:37;;;;;;;1999.90;999.90;;;;;;;4.32;93.19;95673.69;5135538;27;20123;-66
2024/02/10 06:30:08;;;;;;;1999.90;999.90;;;;;;;4.46;94.29;95673.34;5135858;27;20146;-66
2024/02/10 06:32:37;;;;;;;1999.90;999.90;;;;;;;4.59;94.93;95679.00;5135712;27;20073;-68
2024/02/10 06:35:06;;;;;;;1999.90;999.90;;;;;;;4.76;95.25;95678.53;5135773;27;20047;-65
2024/02/10 06:37:35;;;;;;;1999.90;999.90;;;;;;;4.93;95.70;95670.28;5135663;27;20051;-67
2024/02/10 06:40:05;;;;;;;1999.90;999.90;;;;;;;5.05;95.19;95674.25;5135503;27;20054;-66
2024/02/10 06:42:35;;;;;;;1999.90;999.90;;;;;;;5.20;95.49;95681.63;5135594;27;20469;-65
2024/02/10 06:45:04;;;;;;;1999.90;999.90;;;;;;;5.31;95.23;95675.19;5135591;27;20043;-64
2024/02/10 06:47:32;;;;;;;1999.90;999.90;;;;;;;5.38;94.28;95678.44;5135487;27;20126;-68
2024/02/10 06:50:04;;;;;;;1999.90;999.90;;;;;;;5.52;93.77;95690.13;5135428;27;20047;-66
2024/02/10 06:52:34;;;;;;;1999.90;999.90;;;;;;;5.63;93.45;95706.19;5135384;27;20046;-66
2024/02/10 06:55:03;;;;;;;1999.90;999.90;;;;;;;5.76;93.30;95711.88;5135440;27;20082;-64
2024/02/10 06:57:31;;;;;;;1999.90;999.90;;;;;;;5.84;92.20;95710.75;5135088;27;20089;-68
2024/02/10 07:00:05;;;;;;;1999.90;999.90;;;;;;;5.98;92.02;95718.09;5135175;27;20542;-65
2024/02/10 07:02:32;;;;;;;1999.90;999.90;;;;;;;6.12;91.56;95723.72;5135177;27;20511;-65
2024/02/10 07:05:00;;;;;;;1999.90;999.90;;;;;;;6.24;91.26;95721.59;5135392;27;20043;-64
2024/02/10 07:07:27;;;;;;;1999.90;999.90;;;;;;;6.40;90.94;95721.91;5135064;27;20043;-65
2024/02/10 07:09:59;;;;;;;1999.90;999.90;;;;;;;6.59;90.32;95726.50;5135070;27;20071;-63
2024/02/10 07:12:28;;;;;;;1999.90;999.90;;;;;;;6.79;90.12;95724.03;5134893;27;20045;-62
2024/02/10 07:14:56;;;;;;;1999.90;999.90;;;;;;;6.99;89.22;95717.25;5135143;27;20043;-65
2024/02/10 07:17:24;;;;;;;1999.90;999.90;;;;;;;7.20;87.87;95720.78;5134860;27;20088;-65
2024/02/10 07:19:52;;;;;;;1999.90;999.90;;;;;;;7.41;86.74;95718.28;5134894;27;20054;-63
2024/02/10 07:22:19;;;;;;;1999.90;999.90;;;;;;;7.62;85.33;95727.94;5134919;27;20071;-64
2024/02/10 07:24:47;;;;;;;1999.90;999.90;;;;;;;7.80;83.46;95732.41;5134882;27;20047;-65
2024/02/10 07:27:17;;;;;;;1999.90;999.90;;;;;;;7.99;82.09;95731.66;5134700;27;20126;-65
2024/02/10 07:29:46;;;;;;;1999.90;999.90;;;;;;;8.15;80.85;95736.25;5134997;27;20047;-64
2024/02/10 07:32:14;;;;;;;1999.90;999.90;;;;;;;8.31;79.59;95737.28;5134583;27;20043;-65
2024/02/10 07:34:41;;;;;;;1999.90;999.90;;;;;;;8.51;77.75;95734.75;5134521;27;20492;-63
2024/02/10 07:37:09;;;;;;;1999.90;999.90;;;;;;;8.71;76.84;95739.16;5134655;27;20070;-65
2024/02/10 07:39:40;;;;;;;1999.90;999.90;;;;;;;8.90;75.17;95728.78;5133918;27;20513;-67
2024/02/10 07:42:10;;;;;;;1999.90;999.90;;;;;;;9.44;73.51;95735.06;5134638;27;20477;-63
2024/02/10 07:44:37;;;;;;;1999.90;999.90;;;;;;;10.17;71.25;95742.06;5134373;27;20047;-67
2024/02/10 07:47:06;;;;;;;1999.90;999.90;;;;;;;10.97;68.19;95741.63;5134517;27;20086;-67
2024/02/10 07:49:35;;;;;;;1999.90;999.90;;;;;;;12.29;62.60;95753.75;5134560;27;20047;-64
2024/02/10 07:52:02;;;;;;;1999.90;999.90;;;;;;;13.97;55.76;95761.22;5134594;27;20448;-65
2024/02/10 07:54:31;;;;;;;1999.90;999.90;;;;;;;15.77;50.13;95751.91;5134427;27;20047;-67
2024/02/10 07:56:58;;;;;;;1999.90;999.90;;;;;;;17.40;45.58;95723.19;5134164;27;20051;-67
2024/02/10 07:59:26;;;;;;;1999.90;999.90;;;;;;;18.79;41.71;95729.78;5134333;27;20050;-67
2024/02/10 08:01:54;;;;;;;1999.90;999.90;;;;;;;19.79;40.13;95722.16;5134125;27;20134;-63
2024/02/10 08:04:23;;;;;;;1999.90;999.90;;;;;;;20.42;38.02;95719.31;5134273;27;20130;-68
2024/02/10 08:06:50;;;;;;;1999.90;999.90;;;;;;;21.13;35.94;95709.28;5134342;27;20051;-66
2024/02/10 08:09:18;;;;;;;1999.90;999.90;;;;;;;22.36;35.37;95718.03;5134349;27;20103;-66
2024/02/10 08:11:45;;;;;;;1999.90;999.90;;;;;;;22.96;33.61;95723.72;5134134;27;20557;-65
2024/02/10 08:14:17;;;;;;;1999.90;999.90;;;;;;;22.88;33.61;95721.00;5134367;27;20047;-66
2024/02/10 08:16:49;;;;;;;1999.90;999.90;;;;;;;22.41;33.11;95721.09;5134083;27;20061;-62
2024/02/10 08:19:18;;;;;;;1999.90;999.90;;;;;;;22.80;33.41;95724.44;5134159;27;20051;-65
2024/02/10 08:21:46;;;;;;;1999.90;999.90;;;;;;;23.23;32.72;95727.22;5133933;27;20046;-65
2024/02/10 08:24:13;;;;;;;1999.90;999.90;;;;;;;23.85;31.60;95736.91;5134127;27;20086;-65
2024/02/10 08:26:40;;;;;;;1999.90;999.90;;;;;;;24.21;30.80;95740.34;5134039;27;20126;-63
2024/02/10 08:29:08;;;;;;;1999.90;999.90;;;;;;;23.73;31.50;95731.00;5134072;27;20467;-68
2024/02/10 08:31:36;;;;;;;1999.90;999.90;;;;;;;22.83;32.30;95738.28;5133888;27;20138;-66
2024/02/10 08:34:03;;;;;;;1999.90;999.90;;;;;;;22.04;33.67;95743.38;5133908;27;20082;-63
2024/02/10 08:36:31;;;;;;;1999.90;999.90;;;;;;;21.10;33.51;95741.47;5133713;27;20104;-63
2024/02/10 08:39:07;;;;;;;1999.90;999.90;;;;;;;19.98;36.54;95744.38;5134194;27;20043;-65
2024/02/10 08:41:35;;;;;;;1999.90;999.90;;;;;;;19.61;36.65;95747.63;5133921;27;20063;-64
2024/02/10 08:44:02;;;;;;;1999.90;999.90;;;;;;;19.21;38.20;95752.78;5133921;27;20055;-66
2024/02/10 08:46:29;;;;;;;1999.90;999.90;;;;;;;18.66;39.31;95757.28;5133704;27;20543;-67
2024/02/10 08:48:57;;;;;;;1999.90;999.90;;;;;;;18.15;39.32;95742.94;5133835;27;20043;-65
2024/02/10 08:51:24;;;;;;;1999.90;999.90;;;;;;;18.15;40.48;95743.75;5135718;27;20046;-63
2024/02/10 08:53:56;;;;;;;1999.90;999.90;;;;;;;18.00;40.55;95737.88;5137759;27;20047;-64
2024/02/10 08:56:28;;;;;;;1999.90;999.90;;;;;;;17.88;40.38;95742.34;5137574;27;20137;-68
2024/02/10 08:58:58;;;;;;;1999.90;999.90;;;;;;;17.87;40.53;95729.25;5137744;27;20054;-64
2024/02/10 09:01:26;;;;;;;1999.90;999.90;;;;;;;17.93;39.36;95734.03;5137728;27;20047;-65
2024/02/10 09:03:57;;;;;;;1999.90;999.90;;;;;;;17.98;38.26;95729.25;5137578;27;20043;-67
2024/02/10 09:06:24;;;;;;;1999.90;999.90;;;;;;;18.09;37.24;95731.00;5137617;27;20043;-66
2024/02/10 09:08:52;;;;;;;1999.90;999.90;;;;;;;17.83;38.32;95725.19;5137620;27;20157;-63
2024/02/10 09:11:19;;;;;;;1999.90;999.90;;;;;;;17.87;38.70;95719.53;5137750;27;20079;-67
2024/02/10 09:13:48;;;;;;;1999.90;999.90;;;;;;;17.84;38.07;95722.41;5137315;27;20556;-64
2024/02/10 09:16:16;;;;;;;1999.90;999.90;;;;;;;17.80;39.19;95716.53;5137468;27;20043;-67
2024/02/10 09:18:44;;;;;;;1999.90;999.90;;;;;;;17.84;39.14;95717.13;5137324;27;20047;-65
2024/02/10 09:21:14;;;;;;;1999.90;999.90;;;;;;;17.90;39.29;95713.97;5137124;27;20571;-66
2024/02/10 09:23:42;;;;;;;1999.90;999.90;;;;;;;18.01;39.38;95718.41;5137164;27;20050;-64
2024/02/10 09:26:11;;;;;;;1999.90;999.90;;;;;;;18.07;38.66;95717.06;5137326;27;20081;-67
2024/02/10 09:28:38;;;;;;;1999.90;999.90;;;;;;;17.91;38.92;95720.94;5137120;27;20504;-65
2024/02/10 09:31:13;;;;;;;1999.90;999.90;;;;;;;17.84;38.37;95721.56;5136988;27;20043;-63
2024/02/10 09:33:40;;;;;;;1999.90;999.90;;;;;;;17.88;38.27;95715.91;5136809;27;20537;-65
2024/02/10 09:36:11;;;;;;;1999.90;999.90;;;;;;;17.92;38.35;95713.84;5136835;27;20490;-64
2024/02/10 09:38:39;;;;;;;1999.90;999.90;;;;;;;17.88;37.34;95712.44;5136941;27;20049;-67
2024/02/10 09:41:07;;;;;;;1999.90;999.90;;;;;;;17.65;37.38;95718.63;5136746;27;20517;-67
2024/02/10 09:43:37;;;;;;;1999.90;999.90;;;;;;;17.28;37.83;95717.06;5136859;27;20051;-67
2024/02/10 09:46:06;;;;;;;1999.90;999.90;;;;;;;17.15;38.46;95714.53;5136980;27;20047;-63
2024/02/10 09:48:40;;;;;;;1999.90;999.90;;;;;;;16.99;38.23;95719.28;5136899;27;20047;-63
2024/02/10 09:51:07;;;;;;;1999.90;999.90;;;;;;;16.91;38.20;95731.28;5136594;27;20537;-68
2024/02/10 09:53:34;;;;;;;1999.90;999.90;;;;;;;16.83;38.67;95724.91;5136705;27;20078;-67
2024/02/10 09:56:02;;;;;;;1999.90;999.90;;;;;;;16.74;38.35;95714.09;5136586;27;20040;-65
2024/02/10 09:58:29;;;;;;;1999.90;999.90;;;;;;;16.92;38.11;95719.75;5136515;27;20055;-65
2024/02/10 10:01:01;;;;;;;1999.90;999.90;;;;;;;16.95;38.02;95720.50;5136596;27;20059;-65
2024/02/10 10:03:28;;;;;;;1999.90;999.90;;;;;;;17.00;36.95;95711.25;5135887;27;20047;-66
2024/02/10 10:05:59;;;;;;;1999.90;999.90;;;;;;;16.72;36.67;95721.31;5136313;27;20381;-62
2024/02/10 10:08:27;;;;;;;1999.90;999.90;;;;;;;16.79;36.78;95722.50;5136302;27;20123;-64
2024/02/10 10:10:55;;;;;;;1999.90;999.90;;;;;;;16.75;37.14;95713.16;5136302;27;20051;-68
2024/02/10 10:13:24;;;;;;;1999.90;999.90;;;;;;;16.64;37.48;95711.31;5136371;27;20391;-63
2024/02/10 10:15:51;;;;;;;1999.90;999.90;;;;;;;16.42;36.35;95712.94;5136398;27;20047;-64
2024/02/10 10:18:19;;;;;;;1999.90;999.90;;;;;;;16.34;37.60;95703.94;5136239;27;20076;-67
2024/02/10 10:20:47;;;;;;;1999.90;999.90;;;;;;;16.37;36.63;95706.31;5136107;27;20043;-66
2024/02/10 10:23:16;;;;;;;1999.90;999.90;;;;;;;16.22;37.27;95706.50;5136369;27;20055;-62
2024/02/10 10:25:46;;;;;;;1999.90;999.90;;;;;;;16.21;37.82;95703.97;5136058;27;20108;-66
2024/02/10 10:28:16;;;;;;;1999.90;999.90;;;;;;;16.25;38.66;95702.78;5136161;27;20055;-66
2024/02/10 10:30:44;;;;;;;1999.90;999.90;;;;;;;16.28;37.54;95699.91;5135987;27;20047;-66
2024/02/10 10:33:12;;;;;;;1999.90;999.90;;;;;;;16.38;37.17;95700.91;5135768;27;20043;-67
2024/02/10 10:35:44;;;;;;;1999.90;999.90;;;;;;;16.50;38.19;95693.06;5136009;27;20054;-65
2024/02/10 10:38:12;;;;;;;1999.90;999.90;;;;;;;16.62;37.96;95686.81;5135858;27;20043;-65
2024/02/10 10:40:43;;;;;;;1999.90;999.90;;;;;;;16.73;38.27;95688.66;5135800;27;20484;-64
2024/02/10 10:43:11;;;;;;;1999.90;999.90;;;;;;;16.80;38.30;95689.84;5135631;27;20055;-65
2024/02/10 10:45:39;;;;;;;1999.90;999.90;;;;;;;16.82;38.15;95687.09;5135706;27;20073;-65
2024/02/10 10:48:07;;;;;;;1999.90;999.90;;;;;;;16.85;37.96;95693.94;5135440;27;20070;-65
2024/02/10 10:50:35;;;;;;;1999.90;999.90;;;;;;;16.87;37.64;95684.09;5135360;27;20499;-67
2024/02/10 10:53:07;;;;;;;1999.90;999.90;;;;;;;16.88;37.21;95678.72;5135620;27;20120;-64
2024/02/10 10:55:39;;;;;;;1999.90;999.90;;;;;;;16.87;36.46;95676.19;5135232;27;20126;-66
2024/02/10 10:58:11;;;;;;;1999.90;999.90;;;;;;;16.92;35.56;95685.44;5135396;27;20043;-67
2024/02/10 11:00:42;;;;;;;1999.90;999.90;;;;;;;16.99;34.65;95696.38;5135447;27;20074;-65
2024/02/10 11:03:09;;;;;;;;;;;;;;;17.14;35.88;95704.09;5135763;27;20476;-66
2024/02/10 11:05:41;;;;;;;1999.90;999.90;;;;;;;17.25;35.37;95695.34;5135486;27;19919;-63